sensor_id;sensor_type;location;lat;lon;timestamp;P1;durP1;ratioP1;P2;durP2;ratioP2
47529;SDS011;33272;51.922;7.730;2022-08-14T00:00:27;7.80;;;6.27;;
47529;SDS011;33272;51.922;7.730;2022-08-14T00:02:54;8.63;;;6.90;;
47529;SDS011;33272;51.922;7.730;2022-08-14T00:05:21;8.40;;;7.03;;
47529;SDS011;33272;51.922;7.730;2022-08-14T00:07:48;8.27;;;6.37;;
47529;SDS011;33272;51.922;7.730;2022-08-14T00:10:19;7.97;;;6.40;;
47529;SDS011;33272;51.922;7.730;2022-08-14T00:12:48;7.30;;;6.50;;
47529;SDS011;33272;51.922;7.730;2022-08-14T00:15:18;8.83;;;7.50;;
47529;SDS011;33272;51.922;7.730;2022-08-14T00:17:49;7.30;;;6.63;;
47529;SDS011;33272;51.922;7.730;2022-08-14T00:20:17;7.50;;;6.77;;
47529;SDS011;33272;51.922;7.730;2022-08-14T00:22:48;7.77;;;6.40;;
47529;SDS011;33272;51.922;7.730;2022-08-14T00:25:17;8.00;;;6.70;;
47529;SDS011;33272;51.922;7.730;2022-08-14T00:27:44;10.03;;;7.30;;
47529;SDS011;33272;51.922;7.730;2022-08-14T00:30:12;8.30;;;6.97;;
47529;SDS011;33272;51.922;7.730;2022-08-14T00:32:41;7.87;;;6.80;;
47529;SDS011;33272;51.922;7.730;2022-08-14T00:35:09;7.67;;;6.90;;
47529;SDS011;33272;51.922;7.730;2022-08-14T00:37:38;7.13;;;6.43;;
47529;SDS011;33272;51.922;7.730;2022-08-14T00:40:07;6.97;;;6.37;;
47529;SDS011;33272;51.922;7.730;2022-08-14T00:42:38;7.57;;;6.87;;
47529;SDS011;33272;51.922;7.730;2022-08-14T00:45:06;7.53;;;6.57;;
47529;SDS011;33272;51.922;7.730;2022-08-14T00:47:36;7.60;;;6.77;;
47529;SDS011;33272;51.922;7.730;2022-08-14T00:50:04;8.13;;;6.10;;
47529;SDS011;33272;51.922;7.730;2022-08-14T00:52:33;7.80;;;7.10;;
47529;SDS011;33272;51.922;7.730;2022-08-14T00:55:01;7.13;;;6.43;;
47529;SDS011;33272;51.922;7.730;2022-08-14T00:57:31;7.97;;;6.87;;
47529;SDS011;33272;51.922;7.730;2022-08-14T01:00:03;8.47;;;6.57;;
47529;SDS011;33272;51.922;7.730;2022-08-14T01:02:32;9.47;;;6.70;;
47529;SDS011;33272;51.922;7.730;2022-08-14T01:05:03;8.17;;;6.40;;
47529;SDS011;33272;51.922;7.730;2022-08-14T01:07:32;9.50;;;6.90;;
47529;SDS011;33272;51.922;7.730;2022-08-14T01:10:01;8.30;;;7.40;;
47529;SDS011;33272;51.922;7.730;2022-08-14T01:12:30;8.83;;;6.87;;
47529;SDS011;33272;51.922;7.730;2022-08-14T01:14:58;7.77;;;7.07;;
47529;SDS011;33272;51.922;7.730;2022-08-14T01:17:29;7.60;;;6.87;;
47529;SDS011;33272;51.922;7.730;2022-08-14T01:20:11;7.83;;;7.13;;
47529;SDS011;33272;51.922;7.730;2022-08-14T01:22:58;9.20;;;8.23;;
47529;SDS011;33272;51.922;7.730;2022-08-14T01:25:25;9.33;;;8.43;;
47529;SDS011;33272;51.922;7.730;2022-08-14T01:27:52;8.83;;;8.03;;
47529;SDS011;33272;51.922;7.730;2022-08-14T01:30:22;8.57;;;7.77;;
47529;SDS011;33272;51.922;7.730;2022-08-14T01:32:50;8.93;;;7.43;;
47529;SDS011;33272;51.922;7.730;2022-08-14T01:35:18;9.37;;;8.43;;
47529;SDS011;33272;51.922;7.730;2022-08-14T01:37:46;9.00;;;8.10;;
47529;SDS011;33272;51.922;7.730;2022-08-14T01:40:15;9.33;;;8.43;;
47529;SDS011;33272;51.922;7.730;2022-08-14T01:42:42;9.13;;;8.23;;
47529;SDS011;33272;51.922;7.730;2022-08-14T01:45:09;9.00;;;8.10;;
47529;SDS011;33272;51.922;7.730;2022-08-14T01:47:38;10.03;;;8.47;;
47529;SDS011;33272;51.922;7.730;2022-08-14T01:50:06;9.20;;;8.27;;
47529;SDS011;33272;51.922;7.730;2022-08-14T01:52:35;9.00;;;7.77;;
47529;SDS011;33272;51.922;7.730;2022-08-14T01:55:04;8.40;;;7.53;;
47529;SDS011;33272;51.922;7.730;2022-08-14T01:57:35;8.53;;;7.67;;
47529;SDS011;33272;51.922;7.730;2022-08-14T02:00:03;8.47;;;7.67;;
47529;SDS011;33272;51.922;7.730;2022-08-14T02:02:33;8.77;;;7.87;;
47529;SDS011;33272;51.922;7.730;2022-08-14T02:05:01;8.97;;;8.07;;
47529;SDS011;33272;51.922;7.730;2022-08-14T02:07:28;7.93;;;7.23;;
47529;SDS011;33272;51.922;7.730;2022-08-14T02:09:56;8.63;;;7.73;;
47529;SDS011;33272;51.922;7.730;2022-08-14T02:12:23;8.97;;;8.03;;
47529;SDS011;33272;51.922;7.730;2022-08-14T02:14:52;7.83;;;7.07;;
47529;SDS011;33272;51.922;7.730;2022-08-14T02:17:19;9.07;;;8.17;;
47529;SDS011;33272;51.922;7.730;2022-08-14T02:19:47;8.53;;;7.63;;
47529;SDS011;33272;51.922;7.730;2022-08-14T02:22:15;8.77;;;7.87;;
47529;SDS011;33272;51.922;7.730;2022-08-14T02:24:43;8.30;;;7.50;;
47529;SDS011;33272;51.922;7.730;2022-08-14T02:27:10;9.07;;;7.90;;
47529;SDS011;33272;51.922;7.730;2022-08-14T02:29:38;9.53;;;8.53;;
47529;SDS011;33272;51.922;7.730;2022-08-14T02:32:07;8.70;;;7.80;;
47529;SDS011;33272;51.922;7.730;2022-08-14T02:34:35;9.60;;;8.70;;
47529;SDS011;33272;51.922;7.730;2022-08-14T02:37:05;9.27;;;8.20;;
47529;SDS011;33272;51.922;7.730;2022-08-14T02:39:36;9.20;;;8.30;;
47529;SDS011;33272;51.922;7.730;2022-08-14T02:42:06;9.37;;;8.00;;
47529;SDS011;33272;51.922;7.730;2022-08-14T02:44:36;9.53;;;8.50;;
47529;SDS011;33272;51.922;7.730;2022-08-14T02:47:04;9.57;;;8.20;;
47529;SDS011;33272;51.922;7.730;2022-08-14T02:49:33;9.27;;;8.37;;
47529;SDS011;33272;51.922;7.730;2022-08-14T02:52:01;9.77;;;8.77;;
47529;SDS011;33272;51.922;7.730;2022-08-14T02:54:31;9.30;;;8.40;;
47529;SDS011;33272;51.922;7.730;2022-08-14T02:57:00;9.07;;;8.17;;
47529;SDS011;33272;51.922;7.730;2022-08-14T02:59:30;10.27;;;9.03;;
47529;SDS011;33272;51.922;7.730;2022-08-14T03:01:58;9.33;;;8.33;;
47529;SDS011;33272;51.922;7.730;2022-08-14T03:04:27;9.00;;;8.23;;
47529;SDS011;33272;51.922;7.730;2022-08-14T03:06:55;8.53;;;7.73;;
47529;SDS011;33272;51.922;7.730;2022-08-14T03:09:22;9.03;;;8.20;;
47529;SDS011;33272;51.922;7.730;2022-08-14T03:11:50;10.37;;;8.30;;
47529;SDS011;33272;51.922;7.730;2022-08-14T03:14:17;9.97;;;9.07;;
47529;SDS011;33272;51.922;7.730;2022-08-14T03:16:47;9.17;;;8.27;;
47529;SDS011;33272;51.922;7.730;2022-08-14T03:19:15;9.60;;;8.60;;
47529;SDS011;33272;51.922;7.730;2022-08-14T03:21:44;8.43;;;7.67;;
47529;SDS011;33272;51.922;7.730;2022-08-14T03:24:12;10.17;;;8.13;;
47529;SDS011;33272;51.922;7.730;2022-08-14T03:26:40;11.87;;;8.50;;
47529;SDS011;33272;51.922;7.730;2022-08-14T03:29:11;8.83;;;7.93;;
47529;SDS011;33272;51.922;7.730;2022-08-14T03:31:45;9.57;;;8.60;;
47529;SDS011;33272;51.922;7.730;2022-08-14T03:34:15;9.57;;;8.60;;
47529;SDS011;33272;51.922;7.730;2022-08-14T03:36:48;9.80;;;8.10;;
47529;SDS011;33272;51.922;7.730;2022-08-14T03:39:21;8.93;;;8.03;;
47529;SDS011;33272;51.922;7.730;2022-08-14T03:41:48;9.43;;;8.20;;
47529;SDS011;33272;51.922;7.730;2022-08-14T03:44:16;9.80;;;8.80;;
47529;SDS011;33272;51.922;7.730;2022-08-14T03:46:44;9.47;;;8.53;;
47529;SDS011;33272;51.922;7.730;2022-08-14T03:49:11;9.33;;;8.33;;
47529;SDS011;33272;51.922;7.730;2022-08-14T03:51:38;9.63;;;8.60;;
47529;SDS011;33272;51.922;7.730;2022-08-14T03:54:06;9.70;;;7.43;;
47529;SDS011;33272;51.922;7.730;2022-08-14T03:56:34;9.57;;;8.63;;
47529;SDS011;33272;51.922;7.730;2022-08-14T03:59:03;10.13;;;8.73;;
47529;SDS011;33272;51.922;7.730;2022-08-14T04:01:36;10.93;;;8.80;;
47529;SDS011;33272;51.922;7.730;2022-08-14T04:04:04;9.73;;;8.73;;
47529;SDS011;33272;51.922;7.730;2022-08-14T04:06:32;9.20;;;8.30;;
47529;SDS011;33272;51.922;7.730;2022-08-14T04:09:01;9.27;;;8.23;;
47529;SDS011;33272;51.922;7.730;2022-08-14T04:11:31;12.03;;;8.33;;
47529;SDS011;33272;51.922;7.730;2022-08-14T04:14:00;10.03;;;9.03;;
47529;SDS011;33272;51.922;7.730;2022-08-14T04:16:28;9.80;;;8.30;;
47529;SDS011;33272;51.922;7.730;2022-08-14T04:18:56;8.97;;;8.17;;
47529;SDS011;33272;51.922;7.730;2022-08-14T04:21:25;9.03;;;8.13;;
47529;SDS011;33272;51.922;7.730;2022-08-14T04:23:54;9.07;;;8.17;;
47529;SDS011;33272;51.922;7.730;2022-08-14T04:26:23;8.93;;;8.03;;
47529;SDS011;33272;51.922;7.730;2022-08-14T04:28:55;9.13;;;8.20;;
47529;SDS011;33272;51.922;7.730;2022-08-14T04:31:23;9.67;;;8.70;;
47529;SDS011;33272;51.922;7.730;2022-08-14T04:33:51;9.23;;;8.33;;
47529;SDS011;33272;51.922;7.730;2022-08-14T04:36:19;8.87;;;7.97;;
47529;SDS011;33272;51.922;7.730;2022-08-14T04:38:46;8.87;;;8.07;;
47529;SDS011;33272;51.922;7.730;2022-08-14T04:41:31;8.50;;;7.70;;
47529;SDS011;33272;51.922;7.730;2022-08-14T04:44:13;8.83;;;7.97;;
47529;SDS011;33272;51.922;7.730;2022-08-14T04:46:40;8.70;;;7.90;;
47529;SDS011;33272;51.922;7.730;2022-08-14T04:49:29;9.10;;;8.20;;
47529;SDS011;33272;51.922;7.730;2022-08-14T04:51:55;8.80;;;7.90;;
47529;SDS011;33272;51.922;7.730;2022-08-14T04:54:24;8.90;;;7.87;;
47529;SDS011;33272;51.922;7.730;2022-08-14T04:56:52;10.37;;;7.87;;
47529;SDS011;33272;51.922;7.730;2022-08-14T04:59:22;8.37;;;7.47;;
47529;SDS011;33272;51.922;7.730;2022-08-14T05:01:49;9.83;;;8.10;;
47529;SDS011;33272;51.922;7.730;2022-08-14T05:04:17;8.23;;;7.50;;
47529;SDS011;33272;51.922;7.730;2022-08-14T05:06:46;9.10;;;8.23;;
47529;SDS011;33272;51.922;7.730;2022-08-14T05:09:15;9.93;;;7.60;;
47529;SDS011;33272;51.922;7.730;2022-08-14T05:11:42;8.13;;;7.33;;
47529;SDS011;33272;51.922;7.730;2022-08-14T05:14:09;8.43;;;7.63;;
47529;SDS011;33272;51.922;7.730;2022-08-14T05:16:38;8.20;;;7.43;;
47529;SDS011;33272;51.922;7.730;2022-08-14T05:19:05;9.80;;;7.70;;
47529;SDS011;33272;51.922;7.730;2022-08-14T05:21:34;8.50;;;7.70;;
47529;SDS011;33272;51.922;7.730;2022-08-14T05:24:01;8.70;;;7.97;;
47529;SDS011;33272;51.922;7.730;2022-08-14T05:26:29;8.97;;;7.83;;
47529;SDS011;33272;51.922;7.730;2022-08-14T05:28:56;11.10;;;8.43;;
47529;SDS011;33272;51.922;7.730;2022-08-14T05:31:23;9.67;;;8.87;;
47529;SDS011;33272;51.922;7.730;2022-08-14T05:33:53;9.10;;;8.30;;
47529;SDS011;33272;51.922;7.730;2022-08-14T05:36:20;9.43;;;8.27;;
47529;SDS011;33272;51.922;7.730;2022-08-14T05:38:47;7.93;;;7.20;;
47529;SDS011;33272;51.922;7.730;2022-08-14T05:41:15;8.67;;;7.83;;
47529;SDS011;33272;51.922;7.730;2022-08-14T05:43:45;8.20;;;7.50;;
47529;SDS011;33272;51.922;7.730;2022-08-14T05:46:13;8.20;;;7.47;;
47529;SDS011;33272;51.922;7.730;2022-08-14T05:48:42;8.20;;;7.43;;
47529;SDS011;33272;51.922;7.730;2022-08-14T05:51:14;9.30;;;6.80;;
47529;SDS011;33272;51.922;7.730;2022-08-14T05:53:42;7.10;;;6.40;;
47529;SDS011;33272;51.922;7.730;2022-08-14T05:56:09;7.67;;;6.97;;
47529;SDS011;33272;51.922;7.730;2022-08-14T05:58:36;7.43;;;6.67;;
47529;SDS011;33272;51.922;7.730;2022-08-14T06:01:04;7.93;;;7.23;;
47529;SDS011;33272;51.922;7.730;2022-08-14T06:03:33;8.20;;;7.40;;
47529;SDS011;33272;51.922;7.730;2022-08-14T06:06:01;7.80;;;6.93;;
47529;SDS011;33272;51.922;7.730;2022-08-14T06:08:30;8.17;;;6.77;;
47529;SDS011;33272;51.922;7.730;2022-08-14T06:10:59;8.20;;;6.67;;
47529;SDS011;33272;51.922;7.730;2022-08-14T06:13:28;7.77;;;6.97;;
47529;SDS011;33272;51.922;7.730;2022-08-14T06:15:56;6.50;;;5.90;;
47529;SDS011;33272;51.922;7.730;2022-08-14T06:18:23;7.27;;;6.67;;
47529;SDS011;33272;51.922;7.730;2022-08-14T06:20:51;7.43;;;6.70;;
47529;SDS011;33272;51.922;7.730;2022-08-14T06:23:18;6.87;;;6.27;;
47529;SDS011;33272;51.922;7.730;2022-08-14T06:25:47;6.77;;;6.17;;
47529;SDS011;33272;51.922;7.730;2022-08-14T06:28:17;7.27;;;6.57;;
47529;SDS011;33272;51.922;7.730;2022-08-14T06:30:45;7.67;;;6.93;;
47529;SDS011;33272;51.922;7.730;2022-08-14T06:33:13;7.43;;;5.93;;
47529;SDS011;33272;51.922;7.730;2022-08-14T06:35:42;6.97;;;6.37;;
47529;SDS011;33272;51.922;7.730;2022-08-14T06:38:13;6.97;;;6.23;;
47529;SDS011;33272;51.922;7.730;2022-08-14T06:40:41;6.77;;;6.07;;
47529;SDS011;33272;51.922;7.730;2022-08-14T06:43:10;7.57;;;6.87;;
47529;SDS011;33272;51.922;7.730;2022-08-14T06:45:39;6.97;;;6.30;;
47529;SDS011;33272;51.922;7.730;2022-08-14T06:48:11;7.40;;;6.80;;
47529;SDS011;33272;51.922;7.730;2022-08-14T06:50:41;6.87;;;6.17;;
47529;SDS011;33272;51.922;7.730;2022-08-14T06:53:08;7.23;;;6.53;;
47529;SDS011;33272;51.922;7.730;2022-08-14T06:55:36;8.07;;;7.27;;
47529;SDS011;33272;51.922;7.730;2022-08-14T06:58:03;7.30;;;6.43;;
47529;SDS011;33272;51.922;7.730;2022-08-14T07:00:32;7.30;;;6.60;;
47529;SDS011;33272;51.922;7.730;2022-08-14T07:02:59;8.70;;;7.13;;
47529;SDS011;33272;51.922;7.730;2022-08-14T07:05:57;7.93;;;6.17;;
47529;SDS011;33272;51.922;7.730;2022-08-14T07:08:26;7.77;;;6.97;;
47529;SDS011;33272;51.922;7.730;2022-08-14T07:10:56;8.63;;;7.07;;
47529;SDS011;33272;51.922;7.730;2022-08-14T07:13:27;7.77;;;7.10;;
47529;SDS011;33272;51.922;7.730;2022-08-14T07:15:57;7.60;;;6.80;;
47529;SDS011;33272;51.922;7.730;2022-08-14T07:18:25;7.23;;;6.47;;
47529;SDS011;33272;51.922;7.730;2022-08-14T07:20:54;7.47;;;6.57;;
47529;SDS011;33272;51.922;7.730;2022-08-14T07:23:22;7.53;;;6.40;;
47529;SDS011;33272;51.922;7.730;2022-08-14T07:25:50;7.93;;;7.23;;
47529;SDS011;33272;51.922;7.730;2022-08-14T07:28:20;7.77;;;6.40;;
47529;SDS011;33272;51.922;7.730;2022-08-14T07:30:50;7.73;;;6.93;;
47529;SDS011;33272;51.922;7.730;2022-08-14T07:33:23;7.27;;;6.57;;
47529;SDS011;33272;51.922;7.730;2022-08-14T07:35:52;7.93;;;7.10;;
47529;SDS011;33272;51.922;7.730;2022-08-14T07:38:21;10.30;;;6.73;;
47529;SDS011;33272;51.922;7.730;2022-08-14T07:40:49;7.03;;;6.37;;
47529;SDS011;33272;51.922;7.730;2022-08-14T07:43:17;6.47;;;5.87;;
47529;SDS011;33272;51.922;7.730;2022-08-14T07:45:44;7.20;;;6.50;;
47529;SDS011;33272;51.922;7.730;2022-08-14T07:48:11;7.03;;;6.33;;
47529;SDS011;33272;51.922;7.730;2022-08-14T07:50:39;7.00;;;6.40;;
47529;SDS011;33272;51.922;7.730;2022-08-14T07:53:07;6.80;;;6.30;;
47529;SDS011;33272;51.922;7.730;2022-08-14T07:55:35;7.53;;;6.83;;
47529;SDS011;33272;51.922;7.730;2022-08-14T07:58:02;8.13;;;7.10;;
47529;SDS011;33272;51.922;7.730;2022-08-14T08:00:29;7.20;;;6.47;;
47529;SDS011;33272;51.922;7.730;2022-08-14T08:02:57;6.77;;;6.17;;
47529;SDS011;33272;51.922;7.730;2022-08-14T08:05:24;7.53;;;6.87;;
47529;SDS011;33272;51.922;7.730;2022-08-14T08:07:53;7.40;;;6.70;;
47529;SDS011;33272;51.922;7.730;2022-08-14T08:10:21;7.47;;;6.70;;
47529;SDS011;33272;51.922;7.730;2022-08-14T08:12:57;9.33;;;7.50;;
47529;SDS011;33272;51.922;7.730;2022-08-14T08:15:26;7.60;;;6.80;;
47529;SDS011;33272;51.922;7.730;2022-08-14T08:17:56;7.20;;;6.60;;
47529;SDS011;33272;51.922;7.730;2022-08-14T08:20:25;8.03;;;6.23;;
47529;SDS011;33272;51.922;7.730;2022-08-14T08:22:55;7.17;;;6.57;;
47529;SDS011;33272;51.922;7.730;2022-08-14T08:25:24;7.50;;;6.80;;
47529;SDS011;33272;51.922;7.730;2022-08-14T08:27:54;7.00;;;6.33;;
47529;SDS011;33272;51.922;7.730;2022-08-14T08:30:23;6.63;;;6.03;;
47529;SDS011;33272;51.922;7.730;2022-08-14T08:32:52;6.60;;;6.10;;
47529;SDS011;33272;51.922;7.730;2022-08-14T08:35:22;7.20;;;6.50;;
47529;SDS011;33272;51.922;7.730;2022-08-14T08:37:52;7.67;;;6.87;;
47529;SDS011;33272;51.922;7.730;2022-08-14T08:40:30;6.90;;;6.30;;
47529;SDS011;33272;51.922;7.730;2022-08-14T08:43:03;7.30;;;6.60;;
47529;SDS011;33272;51.922;7.730;2022-08-14T08:45:31;6.53;;;5.93;;
47529;SDS011;33272;51.922;7.730;2022-08-14T08:48:00;7.40;;;6.70;;
47529;SDS011;33272;51.922;7.730;2022-08-14T08:50:29;7.07;;;6.23;;
47529;SDS011;33272;51.922;7.730;2022-08-14T08:53:01;6.97;;;6.43;;
47529;SDS011;33272;51.922;7.730;2022-08-14T08:55:31;6.77;;;5.97;;
47529;SDS011;33272;51.922;7.730;2022-08-14T08:58:01;5.80;;;5.30;;
47529;SDS011;33272;51.922;7.730;2022-08-14T09:00:31;6.13;;;5.53;;
47529;SDS011;33272;51.922;7.730;2022-08-14T09:03:02;6.17;;;5.67;;
47529;SDS011;33272;51.922;7.730;2022-08-14T09:05:33;6.03;;;5.53;;
47529;SDS011;33272;51.922;7.730;2022-08-14T09:08:10;5.50;;;5.07;;
47529;SDS011;33272;51.922;7.730;2022-08-14T09:10:40;5.97;;;5.37;;
47529;SDS011;33272;51.922;7.730;2022-08-14T09:13:08;6.33;;;5.60;;
47529;SDS011;33272;51.922;7.730;2022-08-14T09:15:37;6.27;;;5.67;;
47529;SDS011;33272;51.922;7.730;2022-08-14T09:18:06;5.83;;;5.23;;
47529;SDS011;33272;51.922;7.730;2022-08-14T09:20:36;5.47;;;5.03;;
47529;SDS011;33272;51.922;7.730;2022-08-14T09:23:04;5.97;;;5.07;;
47529;SDS011;33272;51.922;7.730;2022-08-14T09:25:34;5.40;;;4.90;;
47529;SDS011;33272;51.922;7.730;2022-08-14T09:28:02;5.20;;;4.73;;
47529;SDS011;33272;51.922;7.730;2022-08-14T09:30:30;5.33;;;4.63;;
47529;SDS011;33272;51.922;7.730;2022-08-14T09:33:10;7.23;;;4.40;;
47529;SDS011;33272;51.922;7.730;2022-08-14T09:36:26;4.90;;;4.50;;
47529;SDS011;33272;51.922;7.730;2022-08-14T09:39:06;4.73;;;4.33;;
47529;SDS011;33272;51.922;7.730;2022-08-14T09:41:46;5.20;;;4.80;;
47529;SDS011;33272;51.922;7.730;2022-08-14T09:44:42;5.23;;;4.77;;
47529;SDS011;33272;51.922;7.730;2022-08-14T09:52:58;5.67;;;5.17;;
47529;SDS011;33272;51.922;7.730;2022-08-14T09:55:28;5.07;;;4.67;;
47529;SDS011;33272;51.922;7.730;2022-08-14T09:58:09;5.33;;;4.53;;
47529;SDS011;33272;51.922;7.730;2022-08-14T10:00:44;6.27;;;5.00;;
47529;SDS011;33272;51.922;7.730;2022-08-14T10:03:23;4.90;;;4.43;;
47529;SDS011;33272;51.922;7.730;2022-08-14T10:06:07;5.40;;;4.90;;
47529;SDS011;33272;51.922;7.730;2022-08-14T10:08:39;5.53;;;4.73;;
47529;SDS011;33272;51.922;7.730;2022-08-14T10:11:13;5.27;;;4.77;;
47529;SDS011;33272;51.922;7.730;2022-08-14T10:13:45;5.30;;;4.90;;
47529;SDS011;33272;51.922;7.730;2022-08-14T10:16:18;5.33;;;4.83;;
47529;SDS011;33272;51.922;7.730;2022-08-14T10:19:00;5.67;;;4.20;;
47529;SDS011;33272;51.922;7.730;2022-08-14T10:21:30;4.97;;;4.47;;
47529;SDS011;33272;51.922;7.730;2022-08-14T10:23:58;5.57;;;4.30;;
47529;SDS011;33272;51.922;7.730;2022-08-14T10:26:25;4.97;;;4.13;;
47529;SDS011;33272;51.922;7.730;2022-08-14T10:29:03;4.60;;;4.20;;
47529;SDS011;33272;51.922;7.730;2022-08-14T10:31:34;4.67;;;4.27;;
47529;SDS011;33272;51.922;7.730;2022-08-14T10:34:02;5.00;;;4.57;;
47529;SDS011;33272;51.922;7.730;2022-08-14T10:36:32;4.90;;;4.50;;
47529;SDS011;33272;51.922;7.730;2022-08-14T10:39:02;4.63;;;4.23;;
47529;SDS011;33272;51.922;7.730;2022-08-14T10:41:41;4.90;;;4.47;;
47529;SDS011;33272;51.922;7.730;2022-08-14T10:44:12;5.30;;;4.80;;
47529;SDS011;33272;51.922;7.730;2022-08-14T10:46:42;5.00;;;4.50;;
47529;SDS011;33272;51.922;7.730;2022-08-14T10:49:16;5.27;;;4.77;;
47529;SDS011;33272;51.922;7.730;2022-08-14T10:51:58;4.80;;;4.40;;
47529;SDS011;33272;51.922;7.730;2022-08-14T10:54:34;4.50;;;4.17;;
47529;SDS011;33272;51.922;7.730;2022-08-14T10:57:15;4.67;;;4.27;;
47529;SDS011;33272;51.922;7.730;2022-08-14T10:59:48;4.60;;;4.20;;
47529;SDS011;33272;51.922;7.730;2022-08-14T11:02:22;4.63;;;4.23;;
47529;SDS011;33272;51.922;7.730;2022-08-14T11:05:04;4.43;;;4.03;;
47529;SDS011;33272;51.922;7.730;2022-08-14T11:07:53;4.60;;;4.20;;
47529;SDS011;33272;51.922;7.730;2022-08-14T11:10:37;4.53;;;4.13;;
47529;SDS011;33272;51.922;7.730;2022-08-14T11:13:07;4.93;;;4.53;;
47529;SDS011;33272;51.922;7.730;2022-08-14T11:15:37;5.60;;;5.03;;
47529;SDS011;33272;51.922;7.730;2022-08-14T11:18:04;4.90;;;4.47;;
47529;SDS011;33272;51.922;7.730;2022-08-14T11:20:32;4.50;;;4.07;;
47529;SDS011;33272;51.922;7.730;2022-08-14T11:22:59;4.83;;;4.37;;
47529;SDS011;33272;51.922;7.730;2022-08-14T11:25:27;4.70;;;4.23;;
47529;SDS011;33272;51.922;7.730;2022-08-14T11:27:56;4.83;;;4.43;;
47529;SDS011;33272;51.922;7.730;2022-08-14T11:30:25;4.23;;;3.93;;
47529;SDS011;33272;51.922;7.730;2022-08-14T11:35:33;5.10;;;4.47;;
47529;SDS011;33272;51.922;7.730;2022-08-14T11:38:02;4.80;;;4.30;;
47529;SDS011;33272;51.922;7.730;2022-08-14T11:40:32;5.70;;;5.03;;
47529;SDS011;33272;51.922;7.730;2022-08-14T11:43:02;5.63;;;4.67;;
47529;SDS011;33272;51.922;7.730;2022-08-14T11:45:32;4.70;;;4.30;;
47529;SDS011;33272;51.922;7.730;2022-08-14T11:48:12;4.93;;;4.53;;
47529;SDS011;33272;51.922;7.730;2022-08-14T11:50:43;4.83;;;4.43;;
47529;SDS011;33272;51.922;7.730;2022-08-14T11:53:18;4.93;;;4.53;;
47529;SDS011;33272;51.922;7.730;2022-08-14T11:55:53;5.30;;;4.80;;
47529;SDS011;33272;51.922;7.730;2022-08-14T11:58:25;5.17;;;4.67;;
47529;SDS011;33272;51.922;7.730;2022-08-14T12:00:55;4.33;;;3.93;;
47529;SDS011;33272;51.922;7.730;2022-08-14T12:03:37;4.87;;;4.47;;
47529;SDS011;33272;51.922;7.730;2022-08-14T12:06:10;5.27;;;4.77;;
47529;SDS011;33272;51.922;7.730;2022-08-14T12:08:40;5.00;;;4.60;;
47529;SDS011;33272;51.922;7.730;2022-08-14T12:11:08;5.37;;;4.47;;
47529;SDS011;33272;51.922;7.730;2022-08-14T12:13:39;4.77;;;4.37;;
47529;SDS011;33272;51.922;7.730;2022-08-14T12:16:08;5.50;;;5.00;;
47529;SDS011;33272;51.922;7.730;2022-08-14T12:18:42;4.70;;;4.30;;
47529;SDS011;33272;51.922;7.730;2022-08-14T12:21:13;5.40;;;4.90;;
47529;SDS011;33272;51.922;7.730;2022-08-14T12:23:42;4.70;;;4.30;;
47529;SDS011;33272;51.922;7.730;2022-08-14T12:26:12;6.30;;;4.80;;
47529;SDS011;33272;51.922;7.730;2022-08-14T12:28:44;4.87;;;4.10;;
47529;SDS011;33272;51.922;7.730;2022-08-14T12:31:16;4.70;;;4.20;;
47529;SDS011;33272;51.922;7.730;2022-08-14T12:33:56;4.73;;;4.30;;
47529;SDS011;33272;51.922;7.730;2022-08-14T12:36:25;5.07;;;4.20;;
47529;SDS011;33272;51.922;7.730;2022-08-14T12:38:54;5.57;;;4.60;;
47529;SDS011;33272;51.922;7.730;2022-08-14T12:41:22;8.03;;;4.70;;
47529;SDS011;33272;51.922;7.730;2022-08-14T12:43:54;4.50;;;4.10;;
47529;SDS011;33272;51.922;7.730;2022-08-14T12:46:26;3.93;;;3.63;;
47529;SDS011;33272;51.922;7.730;2022-08-14T12:48:59;4.60;;;4.20;;
47529;SDS011;33272;51.922;7.730;2022-08-14T12:51:30;4.67;;;4.27;;
47529;SDS011;33272;51.922;7.730;2022-08-14T12:53:58;4.47;;;4.07;;
47529;SDS011;33272;51.922;7.730;2022-08-14T12:56:26;9.77;;;4.60;;
47529;SDS011;33272;51.922;7.730;2022-08-14T12:58:55;4.77;;;4.37;;
47529;SDS011;33272;51.922;7.730;2022-08-14T13:01:24;4.43;;;4.03;;
47529;SDS011;33272;51.922;7.730;2022-08-14T13:04:05;5.60;;;4.57;;
47529;SDS011;33272;51.922;7.730;2022-08-14T13:06:38;4.77;;;4.00;;
47529;SDS011;33272;51.922;7.730;2022-08-14T13:09:09;5.30;;;4.80;;
47529;SDS011;33272;51.922;7.730;2022-08-14T13:11:40;4.70;;;4.27;;
47529;SDS011;33272;51.922;7.730;2022-08-14T13:14:09;5.00;;;4.60;;
47529;SDS011;33272;51.922;7.730;2022-08-14T13:16:38;4.50;;;4.10;;
47529;SDS011;33272;51.922;7.730;2022-08-14T13:19:09;4.90;;;4.50;;
47529;SDS011;33272;51.922;7.730;2022-08-14T13:21:40;4.97;;;4.57;;
47529;SDS011;33272;51.922;7.730;2022-08-14T13:24:09;4.97;;;4.47;;
47529;SDS011;33272;51.922;7.730;2022-08-14T13:26:40;4.67;;;4.13;;
47529;SDS011;33272;51.922;7.730;2022-08-14T13:29:11;4.80;;;4.40;;
47529;SDS011;33272;51.922;7.730;2022-08-14T13:31:42;4.53;;;4.23;;
47529;SDS011;33272;51.922;7.730;2022-08-14T13:34:12;4.60;;;4.30;;
47529;SDS011;33272;51.922;7.730;2022-08-14T13:36:39;5.07;;;4.57;;
47529;SDS011;33272;51.922;7.730;2022-08-14T13:39:06;5.07;;;4.67;;
47529;SDS011;33272;51.922;7.730;2022-08-14T13:41:33;4.93;;;4.50;;
47529;SDS011;33272;51.922;7.730;2022-08-14T13:44:02;4.63;;;4.23;;
47529;SDS011;33272;51.922;7.730;2022-08-14T13:46:30;4.80;;;4.07;;
47529;SDS011;33272;51.922;7.730;2022-08-14T13:48:57;4.83;;;4.43;;
47529;SDS011;33272;51.922;7.730;2022-08-14T13:51:26;5.33;;;4.83;;
47529;SDS011;33272;51.922;7.730;2022-08-14T13:54:01;5.65;;;4.60;;
47529;SDS011;33272;51.922;7.730;2022-08-14T13:56:28;5.37;;;4.87;;
47529;SDS011;33272;51.922;7.730;2022-08-14T13:58:59;5.35;;;4.85;;
47529;SDS011;33272;51.922;7.730;2022-08-14T14:01:27;5.17;;;4.77;;
47529;SDS011;33272;51.922;7.730;2022-08-14T14:03:59;4.90;;;4.50;;
47529;SDS011;33272;51.922;7.730;2022-08-14T14:06:31;4.97;;;4.57;;
47529;SDS011;33272;51.922;7.730;2022-08-14T14:08:59;4.80;;;4.40;;
47529;SDS011;33272;51.922;7.730;2022-08-14T14:11:30;4.75;;;4.35;;
47529;SDS011;33272;51.922;7.730;2022-08-14T14:13:57;4.53;;;4.17;;
47529;SDS011;33272;51.922;7.730;2022-08-14T14:16:24;5.07;;;4.47;;
47529;SDS011;33272;51.922;7.730;2022-08-14T14:18:53;5.13;;;4.73;;
47529;SDS011;33272;51.922;7.730;2022-08-14T14:21:26;6.00;;;4.60;;
47529;SDS011;33272;51.922;7.730;2022-08-14T14:23:55;5.00;;;4.50;;
47529;SDS011;33272;51.922;7.730;2022-08-14T14:26:23;5.53;;;4.57;;
47529;SDS011;33272;51.922;7.730;2022-08-14T14:28:51;4.67;;;4.20;;
47529;SDS011;33272;51.922;7.730;2022-08-14T14:31:22;5.03;;;4.60;;
47529;SDS011;33272;51.922;7.730;2022-08-14T14:33:54;5.13;;;4.40;;
47529;SDS011;33272;51.922;7.730;2022-08-14T14:36:25;4.77;;;4.37;;
47529;SDS011;33272;51.922;7.730;2022-08-14T14:38:56;4.13;;;3.73;;
47529;SDS011;33272;51.922;7.730;2022-08-14T14:41:26;5.00;;;4.60;;
47529;SDS011;33272;51.922;7.730;2022-08-14T14:43:57;4.73;;;4.33;;
47529;SDS011;33272;51.922;7.730;2022-08-14T14:46:25;4.57;;;4.17;;
47529;SDS011;33272;51.922;7.730;2022-08-14T14:48:57;4.77;;;4.37;;
47529;SDS011;33272;51.922;7.730;2022-08-14T14:51:25;4.70;;;4.30;;
47529;SDS011;33272;51.922;7.730;2022-08-14T14:53:52;4.43;;;4.03;;
47529;SDS011;33272;51.922;7.730;2022-08-14T14:56:23;4.53;;;4.13;;
47529;SDS011;33272;51.922;7.730;2022-08-14T14:58:50;4.57;;;4.17;;
47529;SDS011;33272;51.922;7.730;2022-08-14T15:01:17;4.60;;;4.30;;
47529;SDS011;33272;51.922;7.730;2022-08-14T15:03:47;4.87;;;4.47;;
47529;SDS011;33272;51.922;7.730;2022-08-14T15:06:18;5.17;;;4.77;;
47529;SDS011;33272;51.922;7.730;2022-08-14T15:08:45;5.10;;;4.10;;
47529;SDS011;33272;51.922;7.730;2022-08-14T15:11:13;5.00;;;4.50;;
47529;SDS011;33272;51.922;7.730;2022-08-14T15:13:41;4.43;;;4.03;;